SKSP/ADZ METAR and TAF weather

Enter ICAO airport designator
Station Type Date Time Source
SKSP METAR 2019/04/18 14:00 UTC NOAA

SKSP 181400Z 08013KT 050V110 9999 FEW018 29/22 A2990


Station Type Date Time Source
SKSP Decoded METAR 2019/04/18 14:00 UTC NOAA

San Andres Isla / Sesquicentenario, Colombia (SKSP) 12-35N 081-43W 6M
Apr 18, 2019 - 10:00 AM EDT / 2019.04.18 1400 UTC
Wind: from the E (080 degrees) at 15 MPH (13 KT) (direction variable):0
Visibility: greater than 7 mile(s):0
Sky conditions: mostly clear
Temperature: 84 F (29 C)
Dew Point: 71 F (22 C)
Relative Humidity: 65%
Pressure (altimeter): 29.9 in. Hg (1012 hPa)
ob: SKSP 181400Z 08013KT 050V110 9999 FEW018 29/22 A2990
cycle: 14

Station Type Date Time Source
SKSP TAF 2019/04/18 12:38 UTC NOAA

TAF SKSP 181100Z 1812/1912 07010KT 9999 FEW018 TX31/1819Z TN27/1911Z

Example: see airport list